createdAt,value
2023-05-02T00:01:05.329Z,5.38
2023-05-02T00:03:34.875Z,4.63
2023-05-02T00:06:04.035Z,5.82
2023-05-02T00:08:33.005Z,5.88
2023-05-02T00:11:01.968Z,5.32
2023-05-02T00:13:32.128Z,7.00
2023-05-02T00:16:02.910Z,5.95
2023-05-02T00:18:32.139Z,7.07
2023-05-02T00:21:01.140Z,6.05
2023-05-02T00:23:30.545Z,5.95
2023-05-02T00:25:59.683Z,6.05
2023-05-02T00:28:28.597Z,6.68
2023-05-02T00:30:57.889Z,6.50
2023-05-02T00:33:28.637Z,5.72
2023-05-02T00:35:58.128Z,6.38
2023-05-02T00:38:27.254Z,6.13
2023-05-02T00:40:57.059Z,6.05
2023-05-02T00:43:26.189Z,6.82
2023-05-02T00:45:55.220Z,6.82
2023-05-02T00:48:24.278Z,6.57
2023-05-02T00:50:55.523Z,5.50
2023-05-02T00:53:24.883Z,6.88
2023-05-02T00:55:54.384Z,7.50
2023-05-02T00:58:23.542Z,6.53
2023-05-02T01:01:00.450Z,5.93
2023-05-02T01:03:34.893Z,5.80
2023-05-02T01:06:10.687Z,7.22
2023-05-02T01:08:42.144Z,6.32
2023-05-02T01:11:15.284Z,5.63
2023-05-02T01:13:45.145Z,5.05
2023-05-02T01:16:16.278Z,5.57
2023-05-02T01:18:45.670Z,5.20
2023-05-02T01:21:18.703Z,6.65
2023-05-02T01:23:55.055Z,6.57
2023-05-02T01:26:29.513Z,5.60
2023-05-02T01:29:01.333Z,7.32
2023-05-02T01:31:33.199Z,7.85
2023-05-02T01:34:03.128Z,7.93
2023-05-02T01:36:33.756Z,8.13
2023-05-02T01:39:03.515Z,7.80
2023-05-02T01:41:35.064Z,8.07
2023-05-02T01:44:06.247Z,7.90
2023-05-02T01:46:36.932Z,8.27
2023-05-02T01:49:08.084Z,9.32
2023-05-02T01:51:38.794Z,8.88
2023-05-02T01:54:10.851Z,7.97
2023-05-02T01:56:42.047Z,8.73
2023-05-02T01:59:13.569Z,9.27
2023-05-02T02:01:43.608Z,8.73
2023-05-02T02:04:15.540Z,11.63
2023-05-02T02:06:48.339Z,8.68
2023-05-02T02:09:17.829Z,9.48
2023-05-02T02:11:49.272Z,9.90
2023-05-02T02:14:22.340Z,9.40
2023-05-02T02:16:52.691Z,9.88
2023-05-02T02:19:22.974Z,10.55
2023-05-02T02:21:53.248Z,10.40
2023-05-02T02:24:24.573Z,12.65
2023-05-02T02:26:54.102Z,11.13
2023-05-02T02:29:24.753Z,10.80
2023-05-02T02:31:53.863Z,11.52
2023-05-02T02:34:23.305Z,10.45
2023-05-02T02:36:55.585Z,12.40
2023-05-02T02:39:30.981Z,11.57
2023-05-02T02:42:05.809Z,14.05
2023-05-02T02:44:44.214Z,13.35
2023-05-02T02:47:18.577Z,13.32
2023-05-02T02:49:50.647Z,13.05
2023-05-02T02:54:49.230Z,12.07
2023-05-02T02:57:19.595Z,13.30
2023-05-02T02:59:53.358Z,13.77
2023-05-02T03:02:24.610Z,14.55
2023-05-02T03:04:55.503Z,13.23
2023-05-02T03:07:25.952Z,15.50
2023-05-02T03:09:55.429Z,14.80
2023-05-02T03:12:26.817Z,13.93
2023-05-02T03:15:01.735Z,21.55
2023-05-02T03:17:31.503Z,13.93
2023-05-02T03:20:01.176Z,14.15
2023-05-02T03:22:30.568Z,14.77
2023-05-02T03:25:00.667Z,13.88
2023-05-02T03:27:32.007Z,14.32
2023-05-02T03:30:04.613Z,14.65
2023-05-02T03:32:35.285Z,14.18
2023-05-02T03:35:04.622Z,12.63
2023-05-02T03:37:40.098Z,12.57
2023-05-02T03:40:09.905Z,13.95
2023-05-02T03:42:41.396Z,13.65
2023-05-02T03:45:23.462Z,12.35
2023-05-02T03:47:54.486Z,12.80
2023-05-02T03:50:25.350Z,13.13
2023-05-02T03:52:57.286Z,13.07
2023-05-02T03:55:40.936Z,12.57
2023-05-02T03:58:12.517Z,14.27
2023-05-02T04:00:43.060Z,13.77
2023-05-02T04:03:12.454Z,12.45
2023-05-02T04:05:44.619Z,12.75
2023-05-02T04:08:15.804Z,14.77
2023-05-02T04:10:45.879Z,13.07
2023-05-02T04:13:15.919Z,14.00
2023-05-02T04:18:21.483Z,16.35
2023-05-02T04:20:51.777Z,14.65
2023-05-02T04:23:23.245Z,15.38
2023-05-02T04:25:57.749Z,15.10
2023-05-02T04:28:47.173Z,15.85
2023-05-02T04:31:18.322Z,15.77
2023-05-02T04:33:50.028Z,15.98
2023-05-02T04:36:23.202Z,16.05
2023-05-02T04:38:53.673Z,15.00
2023-05-02T04:41:23.820Z,14.65
2023-05-02T04:43:59.448Z,14.73
2023-05-02T04:46:28.483Z,16.33
2023-05-02T04:48:58.744Z,14.82
2023-05-02T04:51:28.153Z,16.35
2023-05-02T04:53:58.300Z,19.20
2023-05-02T04:56:27.666Z,13.63
2023-05-02T04:58:56.777Z,9.73
2023-05-02T05:01:30.200Z,12.02
2023-05-02T05:04:01.972Z,12.02
2023-05-02T05:06:32.829Z,10.68
2023-05-02T05:09:02.639Z,9.98
2023-05-02T05:11:32.478Z,8.50
2023-05-02T05:14:04.036Z,7.80
2023-05-02T05:16:35.056Z,9.25
2023-05-02T05:19:05.843Z,8.77
2023-05-02T05:21:35.285Z,8.43
2023-05-02T05:24:05.110Z,7.80
2023-05-02T05:26:34.955Z,7.28
2023-05-02T05:29:07.997Z,8.02
2023-05-02T05:31:42.541Z,8.05
2023-05-02T05:34:16.133Z,9.27
2023-05-02T05:36:46.865Z,8.00
2023-05-02T05:39:16.367Z,6.70
2023-05-02T05:41:47.774Z,8.32
2023-05-02T05:44:19.700Z,7.55
2023-05-02T05:46:49.538Z,7.50
2023-05-02T05:49:22.260Z,7.93
2023-05-02T05:51:51.644Z,6.95
2023-05-02T05:54:21.225Z,7.63
2023-05-02T05:56:50.514Z,7.60
2023-05-02T05:59:22.141Z,7.50
2023-05-02T06:01:51.837Z,9.07
2023-05-02T06:04:25.341Z,9.52
2023-05-02T06:06:56.244Z,7.30
2023-05-02T06:09:26.452Z,7.85
2023-05-02T06:11:55.605Z,7.22
2023-05-02T06:14:24.969Z,8.88
2023-05-02T06:16:55.752Z,7.55
2023-05-02T06:19:26.093Z,8.07
2023-05-02T06:21:56.107Z,8.95
2023-05-02T06:24:25.154Z,8.45
2023-05-02T06:26:54.342Z,7.50
2023-05-02T06:29:23.555Z,8.93
2023-05-02T06:31:52.704Z,9.18
2023-05-02T06:34:21.817Z,8.98
2023-05-02T06:36:56.006Z,9.07
2023-05-02T06:39:26.083Z,7.50
2023-05-02T06:41:58.982Z,10.68
2023-05-02T06:44:30.004Z,11.82
2023-05-02T06:46:59.107Z,10.95
2023-05-02T06:49:28.573Z,9.55
2023-05-02T06:51:59.252Z,10.57
2023-05-02T06:54:28.289Z,10.45
2023-05-02T06:56:57.284Z,9.80
2023-05-02T06:59:27.743Z,9.52
2023-05-02T07:01:56.953Z,9.48
2023-05-02T07:04:28.796Z,9.45
2023-05-02T07:09:28.438Z,14.82
2023-05-02T07:11:58.579Z,11.15
2023-05-02T07:14:27.727Z,9.68
2023-05-02T07:16:56.994Z,9.10
2023-05-02T07:19:26.273Z,8.13
2023-05-02T07:21:55.648Z,9.52
2023-05-02T07:24:25.016Z,9.48
2023-05-02T07:26:55.467Z,9.48
2023-05-02T07:29:24.742Z,7.78
2023-05-02T07:31:53.717Z,10.55
2023-05-02T07:34:22.632Z,9.75
2023-05-02T07:36:51.571Z,9.93
2023-05-02T07:39:20.684Z,8.50
2023-05-02T07:41:49.674Z,9.75
2023-05-02T07:44:19.866Z,8.77
2023-05-02T07:46:49.297Z,9.63
2023-05-02T07:49:18.453Z,9.10
2023-05-02T07:51:47.569Z,8.77
2023-05-02T07:54:19.845Z,8.48
2023-05-02T07:56:48.916Z,6.55
2023-05-02T07:59:18.194Z,6.82
2023-05-02T08:01:48.526Z,7.82
2023-05-02T08:04:18.044Z,7.85
2023-05-02T08:06:47.368Z,6.78
2023-05-02T08:09:16.549Z,8.00
2023-05-02T08:11:45.561Z,6.45
2023-05-02T08:14:14.652Z,6.07
2023-05-02T08:16:46.028Z,6.72
2023-05-02T08:19:17.113Z,5.47
2023-05-02T08:21:46.243Z,6.50
2023-05-02T08:24:15.181Z,5.75
2023-05-02T08:26:44.214Z,5.63
2023-05-02T08:29:13.328Z,6.03
2023-05-02T08:31:42.620Z,6.70
2023-05-02T08:34:11.781Z,5.25
2023-05-02T08:36:42.296Z,6.07
2023-05-02T08:39:11.767Z,5.38
2023-05-02T08:41:41.086Z,5.05
2023-05-02T08:44:10.605Z,5.55
2023-05-02T08:46:42.499Z,7.18
2023-05-02T08:49:12.751Z,5.70
2023-05-02T08:51:44.503Z,4.88
2023-05-02T08:54:14.638Z,5.38
2023-05-02T08:56:43.624Z,6.03
2023-05-02T08:59:12.620Z,5.60
2023-05-02T09:01:43.326Z,6.07
2023-05-02T09:04:13.216Z,8.00
2023-05-02T09:06:43.836Z,5.70
2023-05-02T09:09:12.864Z,5.32
2023-05-02T09:11:42.473Z,5.57
2023-05-02T09:14:16.552Z,6.05
2023-05-02T09:16:46.409Z,5.57
2023-05-02T09:19:26.041Z,7.10
2023-05-02T09:22:01.388Z,7.90
2023-05-02T09:24:30.817Z,4.95
2023-05-02T09:27:02.903Z,5.60
2023-05-02T09:32:05.640Z,4.63
2023-05-02T09:34:37.414Z,4.93
2023-05-02T09:37:09.531Z,4.55
2023-05-02T09:39:39.722Z,5.13
2023-05-02T09:42:09.197Z,5.47
2023-05-02T09:44:39.274Z,5.97
2023-05-02T09:47:09.744Z,4.50
2023-05-02T09:49:42.972Z,5.05
2023-05-02T09:52:13.927Z,4.85
2023-05-02T09:54:43.714Z,4.63
2023-05-02T09:57:13.096Z,5.30
2023-05-02T09:59:42.411Z,5.85
2023-05-02T10:02:13.454Z,6.10
2023-05-02T10:04:43.605Z,6.25
2023-05-02T10:07:14.447Z,5.50
2023-05-02T10:09:45.397Z,5.00
2023-05-02T10:12:17.312Z,5.75
2023-05-02T10:14:52.900Z,3.85
2023-05-02T10:17:24.343Z,5.65
2023-05-02T10:19:55.936Z,4.85
2023-05-02T10:22:26.618Z,5.65
2023-05-02T10:24:56.769Z,4.40
2023-05-02T10:27:25.746Z,5.22
2023-05-02T10:29:55.684Z,4.28
2023-05-02T10:32:26.367Z,6.60
2023-05-02T10:34:56.892Z,4.60
2023-05-02T10:37:27.630Z,4.70
2023-05-02T10:39:56.706Z,5.68
2023-05-02T10:42:25.917Z,4.47
2023-05-02T10:44:55.106Z,4.78
2023-05-02T10:47:24.784Z,4.22
2023-05-02T10:49:56.206Z,4.30
2023-05-02T10:52:33.270Z,4.60
2023-05-02T10:55:23.849Z,4.45
2023-05-02T10:58:11.604Z,5.70
2023-05-02T11:00:40.753Z,6.38
2023-05-02T11:03:10.590Z,5.05
2023-05-02T11:06:06.849Z,5.50
2023-05-02T11:08:41.806Z,5.20
2023-05-02T11:11:26.377Z,3.42
2023-05-02T11:13:55.450Z,4.28
2023-05-02T11:16:24.646Z,6.32
2023-05-02T11:19:00.858Z,6.63
2023-05-02T11:21:32.128Z,4.22
2023-05-02T11:24:25.881Z,5.25
2023-05-02T11:27:16.413Z,4.13
2023-05-02T11:29:54.912Z,4.45
2023-05-02T11:32:25.318Z,6.07
2023-05-02T11:34:56.127Z,4.80
2023-05-02T11:37:25.278Z,4.88
2023-05-02T11:39:54.453Z,5.53
2023-05-02T11:42:31.772Z,7.13
2023-05-02T11:45:02.698Z,4.68
2023-05-02T11:47:34.441Z,4.35
2023-05-02T11:50:06.767Z,4.13
2023-05-02T11:52:41.030Z,5.38
2023-05-02T11:55:12.620Z,4.25
2023-05-02T11:57:43.626Z,4.70
2023-05-02T12:00:13.427Z,4.13
2023-05-02T12:02:45.008Z,5.15
2023-05-02T12:05:16.739Z,5.63
2023-05-02T12:07:47.410Z,5.38
2023-05-02T12:10:16.903Z,4.60
2023-05-02T12:12:47.658Z,6.38
2023-05-02T12:15:17.289Z,6.68
2023-05-02T12:17:48.778Z,4.50
2023-05-02T12:20:18.231Z,4.85
2023-05-02T12:22:47.718Z,5.63
2023-05-02T12:25:16.806Z,7.30
2023-05-02T12:28:00.570Z,5.93
2023-05-02T12:30:29.780Z,6.47
2023-05-02T12:32:59.336Z,6.88
2023-05-02T12:35:29.247Z,7.90
2023-05-02T12:38:09.481Z,6.50
2023-05-02T12:40:40.019Z,7.60
2023-05-02T12:43:10.814Z,6.43
2023-05-02T12:45:45.059Z,6.32
2023-05-02T12:48:21.289Z,5.47
2023-05-02T12:50:50.787Z,6.03
2023-05-02T12:53:19.915Z,5.28
2023-05-02T12:55:49.623Z,5.20
2023-05-02T12:58:25.527Z,25.23
2023-05-02T13:00:54.655Z,5.40
2023-05-02T13:03:24.530Z,5.38
2023-05-02T13:05:56.328Z,6.63
2023-05-02T13:08:25.658Z,5.70
2023-05-02T13:10:54.795Z,6.25
2023-05-02T13:13:25.377Z,12.27
2023-05-02T13:15:54.550Z,7.15
2023-05-02T13:18:26.243Z,6.00
2023-05-02T13:20:55.291Z,6.20
2023-05-02T13:23:24.253Z,5.38
2023-05-02T13:25:53.394Z,6.70
2023-05-02T13:28:22.344Z,8.27
2023-05-02T13:30:52.763Z,6.07
2023-05-02T13:33:22.321Z,6.85
2023-05-02T13:35:51.288Z,5.95
2023-05-02T13:38:20.299Z,6.45
2023-05-02T13:40:49.492Z,6.35
2023-05-02T13:43:18.626Z,7.18
2023-05-02T13:45:48.934Z,5.40
2023-05-02T13:48:21.297Z,7.25
2023-05-02T13:50:51.091Z,6.13
2023-05-02T13:53:20.703Z,5.45
2023-05-02T13:55:49.890Z,5.80
2023-05-02T13:58:19.014Z,4.63
2023-05-02T14:00:50.875Z,6.03
2023-05-02T14:03:24.775Z,4.93
2023-05-02T14:05:55.014Z,5.45
2023-05-02T14:08:24.321Z,5.90
2023-05-02T14:10:53.645Z,5.80
2023-05-02T14:13:24.675Z,5.95
2023-05-02T14:15:56.539Z,4.63
2023-05-02T14:18:27.139Z,6.03
2023-05-02T14:20:59.971Z,5.95
2023-05-02T14:23:29.829Z,5.75
2023-05-02T14:25:59.461Z,6.05
2023-05-02T14:28:28.464Z,5.60
2023-05-02T14:30:57.819Z,6.30
2023-05-02T14:33:28.706Z,5.53
2023-05-02T14:36:00.416Z,4.57
2023-05-02T14:38:29.465Z,4.68
2023-05-02T14:40:59.485Z,4.22
2023-05-02T14:43:28.738Z,6.18
2023-05-02T14:45:58.967Z,5.03
2023-05-02T14:48:30.029Z,6.75
2023-05-02T14:51:01.276Z,6.40
2023-05-02T14:53:30.748Z,6.40
2023-05-02T14:56:00.192Z,6.40
2023-05-02T14:58:29.209Z,5.38
2023-05-02T15:00:58.287Z,6.40
2023-05-02T15:03:27.576Z,6.15
2023-05-02T15:05:58.400Z,6.95
2023-05-02T15:08:27.550Z,4.82
2023-05-02T15:10:57.152Z,6.03
2023-05-02T15:13:26.210Z,6.32
2023-05-02T15:15:55.616Z,5.03
2023-05-02T15:18:24.740Z,5.28
2023-05-02T15:20:53.824Z,4.93
2023-05-02T15:23:25.108Z,5.97
2023-05-02T15:25:54.117Z,5.43
2023-05-02T15:28:23.332Z,7.70
2023-05-02T15:30:52.270Z,6.80
2023-05-02T15:33:21.273Z,6.93
2023-05-02T15:35:58.264Z,6.75
2023-05-02T15:38:28.898Z,5.95
2023-05-02T15:40:58.271Z,7.47
2023-05-02T15:43:29.777Z,7.35
2023-05-02T15:45:59.725Z,7.18
2023-05-02T15:48:29.173Z,7.28
2023-05-02T15:50:58.326Z,7.10
2023-05-02T15:53:29.000Z,6.78
2023-05-02T15:55:58.131Z,5.65
2023-05-02T15:58:27.117Z,6.07
2023-05-02T16:00:56.263Z,6.45
2023-05-02T16:03:25.591Z,6.57
2023-05-02T16:05:56.025Z,6.18
2023-05-02T16:08:30.266Z,5.03
2023-05-02T16:11:01.406Z,7.40
2023-05-02T16:13:30.411Z,5.82
2023-05-02T16:15:59.400Z,5.10
2023-05-02T16:18:28.982Z,4.60
2023-05-02T16:20:58.372Z,6.63
2023-05-02T16:23:28.774Z,5.25
2023-05-02T16:26:01.779Z,5.28
2023-05-02T16:28:30.973Z,7.22
2023-05-02T16:30:59.984Z,7.88
2023-05-02T16:33:28.997Z,6.45
2023-05-02T16:36:04.520Z,5.88
2023-05-02T16:38:36.317Z,5.47
2023-05-02T16:41:07.163Z,6.07
2023-05-02T16:43:38.759Z,5.80
2023-05-02T16:46:08.327Z,5.93
2023-05-02T16:48:37.539Z,6.03
2023-05-02T16:51:06.982Z,5.68
2023-05-02T16:53:37.585Z,7.55
2023-05-02T16:56:07.567Z,5.30
2023-05-02T16:58:36.655Z,5.28
2023-05-02T17:01:06.034Z,6.20
2023-05-02T17:03:35.171Z,7.38
2023-05-02T17:06:04.748Z,6.45
2023-05-02T17:08:34.120Z,6.82
2023-05-02T17:11:07.952Z,6.10
2023-05-02T17:13:37.338Z,5.78
2023-05-02T17:16:08.308Z,6.97
2023-05-02T17:18:38.299Z,6.63
2023-05-02T17:21:07.806Z,7.28
2023-05-02T17:23:36.999Z,6.80
2023-05-02T17:26:14.375Z,7.57
2023-05-02T17:28:43.816Z,7.57
2023-05-02T17:31:14.154Z,7.10
2023-05-02T17:33:43.630Z,6.78
2023-05-02T17:36:12.694Z,4.32
2023-05-02T17:38:42.021Z,5.63
2023-05-02T17:41:12.962Z,5.95
2023-05-02T17:43:45.431Z,9.07
2023-05-02T17:46:15.414Z,4.68
2023-05-02T17:48:53.891Z,3.63
2023-05-02T17:51:29.030Z,6.05
2023-05-02T17:54:06.801Z,4.32
2023-05-02T17:56:40.002Z,5.07
2023-05-02T17:59:10.338Z,7.45
2023-05-02T18:01:40.366Z,7.40
2023-05-02T18:04:12.675Z,6.47
2023-05-02T18:06:42.395Z,6.97
2023-05-02T18:09:11.752Z,6.47
2023-05-02T18:11:42.969Z,6.50
2023-05-02T18:14:12.298Z,6.03
2023-05-02T18:16:46.920Z,8.02
2023-05-02T18:19:16.157Z,8.40
2023-05-02T18:21:45.813Z,7.50
2023-05-02T18:24:14.854Z,6.88
2023-05-02T18:26:45.307Z,6.85
2023-05-02T18:29:15.396Z,6.95
2023-05-02T18:31:47.042Z,9.35
2023-05-02T18:34:16.691Z,7.32
2023-05-02T18:36:46.159Z,6.15
2023-05-02T18:39:15.273Z,8.50
2023-05-02T18:41:46.077Z,7.63
2023-05-02T18:44:16.477Z,8.35
2023-05-02T18:46:46.287Z,8.73
2023-05-02T18:49:15.691Z,7.70
2023-05-02T18:51:44.677Z,8.68
2023-05-02T18:54:13.666Z,6.47
2023-05-02T18:56:52.734Z,7.60
2023-05-02T18:59:22.096Z,7.45
2023-05-02T19:01:51.295Z,8.63
2023-05-02T19:04:20.489Z,7.32
2023-05-02T19:06:52.277Z,9.57
2023-05-02T19:09:23.074Z,9.40
2023-05-02T19:11:55.100Z,9.40
2023-05-02T19:14:24.227Z,8.52
2023-05-02T19:16:53.228Z,8.55
2023-05-02T19:19:22.256Z,8.07
2023-05-02T19:21:53.101Z,8.10
2023-05-02T19:24:22.178Z,8.18
2023-05-02T19:26:52.217Z,8.52
2023-05-02T19:29:22.568Z,8.07
2023-05-02T19:31:51.915Z,9.70
2023-05-02T19:34:21.024Z,9.02
2023-05-02T19:36:50.965Z,9.35
2023-05-02T19:39:22.303Z,9.23
2023-05-02T19:41:51.822Z,9.63
2023-05-02T19:44:22.213Z,8.38
2023-05-02T19:46:51.365Z,8.73
2023-05-02T19:49:20.808Z,9.05
2023-05-02T19:51:50.186Z,8.40
2023-05-02T19:54:19.328Z,9.07
2023-05-02T19:56:48.953Z,13.38
2023-05-02T19:59:19.260Z,8.18
2023-05-02T20:01:49.888Z,9.90
2023-05-02T20:04:21.860Z,9.30
2023-05-02T20:09:19.831Z,8.80
2023-05-02T20:11:49.322Z,9.05
2023-05-02T20:14:18.879Z,8.75
2023-05-02T20:16:48.043Z,9.35
2023-05-02T20:19:20.103Z,8.45
2023-05-02T20:21:52.327Z,7.75
2023-05-02T20:24:21.736Z,8.93
2023-05-02T20:26:51.105Z,8.57
2023-05-02T20:29:20.786Z,7.90
2023-05-02T20:31:49.930Z,7.50
2023-05-02T20:34:20.704Z,8.48
2023-05-02T20:36:49.744Z,7.93
2023-05-02T20:39:20.955Z,8.77
2023-05-02T20:41:50.076Z,7.65
2023-05-02T20:44:22.707Z,10.07
2023-05-02T20:46:52.689Z,8.30
2023-05-02T20:49:23.297Z,9.60
2023-05-02T20:51:52.479Z,9.20
2023-05-02T20:54:21.625Z,9.43
2023-05-02T20:56:51.349Z,8.73
2023-05-02T20:59:20.482Z,8.30
2023-05-02T21:01:49.679Z,8.55
2023-05-02T21:04:18.991Z,8.38
2023-05-02T21:06:50.170Z,7.82
2023-05-02T21:09:19.337Z,9.73
2023-05-02T21:11:48.421Z,9.32
2023-05-02T21:14:19.851Z,7.68
2023-05-02T21:16:50.088Z,9.90
2023-05-02T21:19:20.273Z,9.63
2023-05-02T21:21:51.106Z,9.55
2023-05-02T21:24:27.127Z,9.25
2023-05-02T21:26:56.914Z,9.85
2023-05-02T21:29:27.744Z,8.90
2023-05-02T21:31:57.151Z,9.45
2023-05-02T21:34:26.559Z,8.75
2023-05-02T21:36:57.247Z,7.80
2023-05-02T21:39:26.259Z,7.38
2023-05-02T21:41:56.269Z,8.27
2023-05-02T21:44:25.354Z,9.93
2023-05-02T21:46:54.393Z,9.65
2023-05-02T21:49:23.561Z,9.90
2023-05-02T21:51:52.956Z,9.07
2023-05-02T21:54:23.863Z,9.23
2023-05-02T21:56:53.149Z,9.88
2023-05-02T21:59:22.116Z,9.85
2023-05-02T22:01:51.869Z,9.23
2023-05-02T22:04:21.198Z,8.80
2023-05-02T22:06:51.893Z,9.63
2023-05-02T22:09:23.199Z,10.13
2023-05-02T22:14:27.624Z,9.73
2023-05-02T22:17:02.879Z,9.73
2023-05-02T22:19:34.534Z,9.68
2023-05-02T22:22:04.011Z,10.38
2023-05-02T22:24:34.979Z,9.27
2023-05-02T22:27:04.145Z,10.43
2023-05-02T22:29:33.227Z,11.75
2023-05-02T22:32:02.354Z,7.95
2023-05-02T22:34:31.444Z,12.30
2023-05-02T22:37:00.379Z,9.30
2023-05-02T22:39:29.616Z,8.93
2023-05-02T22:42:01.772Z,9.02
2023-05-02T22:44:32.228Z,8.32
2023-05-02T22:47:03.402Z,11.43
2023-05-02T22:49:33.137Z,9.45
2023-05-02T22:52:04.010Z,8.13
2023-05-02T22:54:32.958Z,9.50
2023-05-02T22:57:03.937Z,9.75
2023-05-02T22:59:33.121Z,9.73
2023-05-02T23:02:02.478Z,10.55
2023-05-02T23:04:33.147Z,9.88
2023-05-02T23:07:03.807Z,9.93
2023-05-02T23:09:33.173Z,9.50
2023-05-02T23:12:05.740Z,9.88
2023-05-02T23:14:35.145Z,7.82
2023-05-02T23:17:04.327Z,10.02
2023-05-02T23:19:33.464Z,8.07
2023-05-02T23:22:03.000Z,9.18
2023-05-02T23:24:32.096Z,8.95
2023-05-02T23:27:01.691Z,9.32
2023-05-02T23:29:32.593Z,9.40
2023-05-02T23:32:01.849Z,8.70
2023-05-02T23:34:32.428Z,8.30
2023-05-02T23:37:01.402Z,8.90
2023-05-02T23:39:30.467Z,9.55
2023-05-02T23:41:59.627Z,9.30
2023-05-02T23:44:28.625Z,9.23
2023-05-02T23:46:59.781Z,10.35
2023-05-02T23:49:28.902Z,10.60
2023-05-02T23:51:58.126Z,10.13
2023-05-02T23:54:33.698Z,11.77
2023-05-02T23:57:03.356Z,10.18
2023-05-02T23:59:35.668Z,9.43
